createdAt,value
2019-06-10T00:00:16.922Z,62.99
2019-06-10T00:01:16.844Z,63.60
2019-06-10T00:02:16.769Z,62.54
2019-06-10T00:03:16.693Z,62.73
2019-06-10T00:04:16.605Z,63.12
2019-06-10T00:05:16.530Z,62.22
2019-06-10T00:06:16.455Z,62.90
2019-06-10T00:07:16.382Z,62.51
2019-06-10T00:08:16.305Z,62.41
2019-06-10T00:09:16.231Z,63.28
2019-06-10T00:10:16.156Z,62.90
2019-06-10T00:11:16.069Z,63.76
2019-06-10T00:12:15.994Z,65.05
2019-06-10T00:13:15.920Z,66.46
2019-06-10T00:14:15.845Z,67.81
2019-06-10T00:15:15.770Z,67.29
2019-06-10T00:16:15.695Z,67.58
2019-06-10T00:17:15.608Z,69.22
2019-06-10T00:18:34.197Z,68.84
2019-06-10T00:19:15.457Z,72.07
2019-06-10T00:20:15.383Z,71.88
2019-06-10T00:21:15.307Z,72.55
2019-06-10T00:22:15.232Z,71.88
2019-06-10T00:23:15.171Z,71.59
2019-06-10T00:24:15.071Z,73.80
2019-06-10T00:25:14.995Z,73.80
2019-06-10T00:26:14.921Z,74.48
2019-06-10T00:27:14.846Z,74.96
2019-06-10T00:28:14.760Z,73.80
2019-06-10T00:29:14.684Z,73.22
2019-06-10T00:30:14.610Z,72.71
2019-06-10T00:31:14.533Z,76.36
2019-06-10T00:32:14.459Z,76.21
2019-06-10T00:33:14.385Z,78.67
2019-06-10T00:34:14.297Z,76.75
2019-06-10T00:35:14.223Z,75.79
2019-06-10T00:36:14.150Z,77.33
2019-06-10T00:37:14.874Z,77.90
2019-06-10T00:38:14.572Z,78.48
2019-06-10T00:39:13.940Z,76.26
2019-06-10T00:40:14.361Z,78.28
2019-06-10T00:41:14.223Z,79.35
2019-06-10T00:42:15.252Z,79.53
2019-06-10T00:43:13.736Z,80.11
2019-06-10T00:44:13.523Z,81.56
2019-06-10T00:45:17.772Z,79.53
2019-06-10T00:46:13.466Z,79.35
2019-06-10T00:47:15.094Z,79.92
2019-06-10T00:48:24.265Z,79.05
2019-06-10T00:49:14.702Z,78.00
2019-06-10T00:50:14.737Z,78.86
2019-06-10T00:51:13.296Z,77.61
2019-06-10T00:52:14.037Z,79.35
2019-06-10T00:53:14.511Z,80.88
2019-06-10T00:54:15.403Z,81.07
2019-06-10T00:55:13.854Z,78.96
2019-06-10T00:56:14.332Z,76.56
2019-06-10T00:57:13.640Z,76.94
2019-06-10T00:58:14.032Z,76.94
2019-06-10T00:59:14.773Z,75.02
2019-06-10T01:00:20.463Z,76.46
2019-06-10T01:01:14.412Z,76.36
2019-06-10T01:02:14.050Z,77.04
2019-06-10T01:03:14.965Z,75.02
2019-06-10T01:04:15.968Z,75.69
2019-06-10T01:05:12.548Z,75.59
2019-06-10T01:06:14.916Z,77.90
2019-06-10T01:07:14.281Z,80.50
2019-06-10T01:08:13.501Z,82.32
2019-06-10T01:09:13.210Z,83.48
2019-06-10T01:10:12.840Z,82.86
2019-06-10T01:11:20.283Z,80.98
2019-06-10T01:12:13.231Z,81.42
2019-06-10T01:13:13.177Z,83.06
2019-06-10T01:14:12.563Z,83.25
2019-06-10T01:15:13.407Z,85.27
2019-06-10T01:16:12.566Z,85.94
2019-06-10T01:17:12.504Z,84.98
2019-06-10T01:18:30.319Z,85.55
2019-06-10T01:19:12.762Z,85.55
2019-06-10T01:20:12.837Z,87.19
2019-06-10T01:21:12.115Z,87.05
2019-06-10T01:22:11.178Z,87.09
2019-06-10T01:23:13.902Z,86.71
2019-06-10T01:24:12.061Z,86.13
2019-06-10T01:25:12.366Z,86.38
2019-06-10T01:26:12.899Z,87.67
2019-06-10T01:27:11.721Z,88.34
2019-06-10T01:28:12.575Z,87.67
2019-06-10T01:29:12.297Z,87.34
2019-06-10T01:30:17.936Z,88.06
2019-06-10T01:31:13.121Z,87.76
2019-06-10T01:32:11.841Z,87.86
2019-06-10T01:33:12.359Z,87.76
2019-06-10T01:34:11.737Z,88.06
2019-06-10T01:35:11.530Z,87.48
2019-06-10T01:36:12.574Z,86.90
2019-06-10T01:37:11.360Z,87.38
2019-06-10T01:38:10.573Z,86.99
2019-06-10T01:39:11.655Z,86.61
2019-06-10T01:40:12.893Z,84.78
2019-06-10T01:41:11.087Z,84.11
2019-06-10T01:42:10.975Z,84.01
2019-06-10T01:43:08.954Z,84.69
2019-06-10T01:44:11.172Z,85.07
2019-06-10T01:45:11.085Z,86.13
2019-06-10T01:46:10.855Z,84.11
2019-06-10T01:47:08.726Z,85.46
2019-06-10T01:48:08.836Z,86.13
2019-06-10T01:49:09.522Z,87.29
2019-06-10T01:50:09.597Z,86.42
2019-06-10T01:51:09.039Z,87.09
2019-06-10T01:52:09.309Z,85.94
2019-06-10T01:53:09.339Z,85.84
2019-06-10T01:54:08.326Z,86.04
2019-06-10T01:55:08.030Z,84.59
2019-06-10T01:56:07.942Z,84.88
2019-06-10T01:57:07.867Z,85.98
2019-06-10T01:58:07.839Z,85.88
2019-06-10T01:59:08.004Z,85.11
2019-06-10T02:00:10.996Z,84.63
2019-06-10T02:01:08.425Z,84.11
2019-06-10T02:02:07.485Z,83.00
2019-06-10T02:03:08.484Z,82.32
2019-06-10T02:04:08.194Z,82.61
2019-06-10T02:05:08.382Z,79.82
2019-06-10T02:06:08.687Z,79.25
2019-06-10T02:07:07.094Z,79.53
2019-06-10T02:08:07.020Z,78.77
2019-06-10T02:09:06.946Z,78.38
2019-06-10T02:10:06.871Z,80.02
2019-06-10T02:11:06.787Z,80.88
2019-06-10T02:12:06.709Z,79.73
2019-06-10T02:13:06.632Z,79.63
2019-06-10T02:14:06.557Z,79.53
2019-06-10T02:15:06.482Z,80.30
2019-06-10T02:16:06.394Z,79.44
2019-06-10T02:17:06.321Z,78.96
2019-06-10T02:18:06.246Z,78.09
2019-06-10T02:19:06.169Z,77.51
2019-06-10T02:20:06.094Z,77.90
2019-06-10T02:21:06.008Z,78.00
2019-06-10T02:22:05.934Z,78.19
2019-06-10T02:23:05.858Z,79.63
2019-06-10T02:24:05.783Z,79.53
2019-06-10T02:25:05.708Z,78.58
2019-06-10T02:26:05.621Z,76.94
2019-06-10T02:27:05.545Z,76.46
2019-06-10T02:28:05.472Z,77.42
2019-06-10T02:29:05.412Z,74.73
2019-06-10T02:30:14.973Z,73.77
2019-06-10T02:31:05.246Z,73.19
2019-06-10T02:32:05.335Z,73.38
2019-06-10T02:33:05.085Z,73.77
2019-06-10T02:34:05.016Z,78.19
2019-06-10T02:35:13.707Z,78.38
2019-06-10T02:36:05.039Z,78.67
2019-06-10T02:37:05.003Z,79.73
2019-06-10T02:38:04.699Z,79.05
2019-06-10T02:39:04.806Z,82.19
2019-06-10T02:40:04.822Z,86.42
2019-06-10T02:41:05.005Z,99.99
2019-06-10T02:42:04.747Z,99.99
2019-06-10T02:43:04.313Z,99.99
2019-06-10T02:44:04.562Z,99.99
2019-06-10T02:45:04.240Z,99.99
2019-06-10T02:46:04.609Z,99.99
2019-06-10T02:47:03.999Z,99.99
2019-06-10T02:48:04.357Z,99.99
2019-06-10T02:49:20.949Z,99.99
2019-06-10T02:50:08.297Z,99.99
2019-06-10T02:51:04.147Z,99.99
2019-06-10T02:52:03.713Z,99.99
2019-06-10T02:53:04.016Z,99.99
2019-06-10T02:54:04.761Z,99.99
2019-06-10T02:55:04.272Z,99.99
2019-06-10T02:56:04.244Z,99.99
2019-06-10T02:57:04.386Z,99.99
2019-06-10T02:58:03.946Z,99.99
2019-06-10T02:59:03.455Z,99.99
2019-06-10T03:00:06.420Z,99.99
2019-06-10T03:01:04.187Z,99.24
2019-06-10T03:02:03.103Z,98.38
2019-06-10T03:03:03.900Z,97.52
2019-06-10T03:04:04.556Z,96.37
2019-06-10T03:05:04.476Z,94.74
2019-06-10T03:06:07.500Z,93.98
2019-06-10T03:07:03.412Z,92.21
2019-06-10T03:08:03.850Z,91.53
2019-06-10T03:09:03.714Z,90.91
2019-06-10T03:10:04.611Z,90.05
2019-06-10T03:11:03.803Z,90.34
2019-06-10T03:12:04.777Z,90.63
2019-06-10T03:13:02.405Z,90.82
2019-06-10T03:14:02.638Z,93.02
2019-06-10T03:15:02.161Z,94.26
2019-06-10T03:16:02.766Z,95.22
2019-06-10T03:17:03.165Z,95.70
2019-06-10T03:18:02.387Z,94.65
2019-06-10T03:19:02.996Z,94.36
2019-06-10T03:20:02.302Z,93.88
2019-06-10T03:21:02.594Z,93.02
2019-06-10T03:22:02.726Z,91.77
2019-06-10T03:23:02.917Z,90.91
2019-06-10T03:24:02.712Z,90.53
2019-06-10T03:25:02.792Z,89.76
2019-06-10T03:26:03.695Z,88.43
2019-06-10T03:27:02.605Z,87.99
2019-06-10T03:28:02.949Z,87.23
2019-06-10T03:29:02.526Z,86.08
2019-06-10T03:30:03.098Z,85.50
2019-06-10T03:31:04.932Z,84.83
2019-06-10T03:32:04.555Z,84.45
2019-06-10T03:33:00.354Z,84.06
2019-06-10T03:34:04.556Z,83.97
2019-06-10T03:35:00.207Z,83.39
2019-06-10T03:36:00.116Z,83.11
2019-06-10T03:37:02.329Z,81.96
2019-06-10T03:37:59.967Z,81.57
2019-06-10T03:39:02.420Z,80.62
2019-06-10T03:40:02.087Z,80.43
2019-06-10T03:40:59.727Z,79.75
2019-06-10T03:42:02.121Z,79.85
2019-06-10T03:42:59.567Z,80.04
2019-06-10T03:43:59.479Z,78.80
2019-06-10T03:44:59.403Z,79.08
2019-06-10T03:45:59.330Z,78.32
2019-06-10T03:46:59.245Z,78.13
2019-06-10T03:47:59.166Z,78.22
2019-06-10T03:48:59.094Z,78.13
2019-06-10T03:49:59.004Z,77.65
2019-06-10T03:50:58.928Z,77.65
2019-06-10T03:51:58.855Z,77.36
2019-06-10T03:53:01.033Z,76.79
2019-06-10T03:54:43.083Z,76.89
2019-06-10T03:55:42.386Z,76.69
2019-06-10T03:56:42.739Z,76.89
2019-06-10T03:57:42.357Z,76.89
2019-06-10T03:59:27.776Z,76.12
2019-06-10T04:00:27.620Z,75.83
2019-06-10T04:01:25.020Z,75.64
2019-06-10T04:02:23.858Z,75.73
2019-06-10T04:03:24.346Z,74.87
2019-06-10T04:04:24.010Z,75.16
2019-06-10T04:05:23.876Z,75.35
2019-06-10T04:06:24.199Z,75.07
2019-06-10T04:07:27.422Z,74.49
2019-06-10T04:08:23.599Z,73.91
2019-06-10T04:09:23.618Z,73.91
2019-06-10T04:10:24.412Z,73.44
2019-06-10T04:11:24.026Z,73.34
2019-06-10T04:12:23.862Z,72.96
2019-06-10T04:13:23.975Z,73.63
2019-06-10T04:14:22.443Z,74.20
2019-06-10T04:15:24.775Z,74.40
2019-06-10T04:16:22.720Z,74.77
2019-06-10T04:17:23.543Z,74.97
2019-06-10T04:18:22.512Z,74.30
2019-06-10T04:19:22.704Z,74.40
2019-06-10T04:20:24.650Z,74.58
2019-06-10T04:21:22.727Z,74.40
2019-06-10T04:22:23.525Z,74.30
2019-06-10T04:23:22.717Z,74.40
2019-06-10T04:24:22.699Z,74.30
2019-06-10T04:25:23.161Z,74.49
2019-06-10T04:26:20.467Z,74.68
2019-06-10T04:27:22.313Z,74.40
2019-06-10T04:28:20.308Z,74.20
2019-06-10T04:29:22.578Z,74.40
2019-06-10T04:30:20.182Z,74.97
2019-06-10T04:31:21.283Z,75.83
2019-06-10T04:32:20.253Z,76.31
2019-06-10T04:33:20.897Z,77.08
2019-06-10T04:34:20.471Z,76.12
2019-06-10T04:35:20.988Z,76.69
2019-06-10T04:36:21.020Z,75.73
2019-06-10T04:37:20.360Z,76.12
2019-06-10T04:38:20.959Z,76.89
2019-06-10T04:39:20.415Z,77.70
2019-06-10T04:40:20.347Z,78.47
2019-06-10T04:41:20.368Z,79.33
2019-06-10T04:42:20.313Z,79.28
2019-06-10T04:43:20.325Z,79.08
2019-06-10T04:44:19.034Z,78.70
2019-06-10T04:45:18.947Z,78.03
2019-06-10T04:46:18.875Z,77.36
2019-06-10T04:47:18.786Z,76.69
2019-06-10T04:48:18.723Z,75.93
2019-06-10T04:49:18.738Z,75.26
2019-06-10T04:50:24.811Z,74.82
2019-06-10T04:51:18.707Z,74.72
2019-06-10T04:52:18.655Z,74.24
2019-06-10T04:53:18.704Z,74.97
2019-06-10T04:54:18.671Z,75.26
2019-06-10T04:55:18.822Z,75.16
2019-06-10T04:56:18.074Z,76.31
2019-06-10T04:57:18.803Z,76.50
2019-06-10T04:58:19.246Z,76.69
2019-06-10T04:59:18.782Z,76.31
2019-06-10T05:00:19.057Z,76.02
2019-06-10T05:01:18.821Z,75.07
2019-06-10T05:02:19.327Z,74.77
2019-06-10T05:03:18.696Z,74.52
2019-06-10T05:04:17.450Z,74.24
2019-06-10T05:05:17.362Z,73.86
2019-06-10T05:06:17.274Z,73.86
2019-06-10T05:07:17.211Z,73.38
2019-06-10T05:08:17.124Z,72.90
2019-06-10T05:09:17.036Z,72.90
2019-06-10T05:10:16.962Z,72.71
2019-06-10T05:11:16.887Z,72.61
2019-06-10T05:12:16.800Z,72.52
2019-06-10T05:13:16.725Z,73.91
2019-06-10T05:14:16.639Z,75.73
2019-06-10T05:15:16.562Z,76.79
2019-06-10T05:16:16.508Z,77.46
2019-06-10T05:17:16.402Z,77.26
2019-06-10T05:18:16.330Z,77.55
2019-06-10T05:19:16.251Z,77.94
2019-06-10T05:20:16.163Z,78.03
2019-06-10T05:21:16.101Z,78.03
2019-06-10T05:22:16.014Z,77.40
2019-06-10T05:23:15.933Z,77.02
2019-06-10T05:24:15.852Z,76.44
2019-06-10T05:25:15.765Z,75.77
2019-06-10T05:26:15.688Z,75.48
2019-06-10T05:27:15.614Z,75.01
2019-06-10T05:28:15.529Z,75.87
2019-06-10T05:29:15.452Z,76.82
2019-06-10T05:30:15.381Z,77.88
2019-06-10T05:31:15.290Z,78.55
2019-06-10T05:32:15.218Z,79.22
2019-06-10T05:33:15.139Z,79.70
2019-06-10T05:34:15.053Z,79.22
2019-06-10T05:35:14.977Z,79.03
2019-06-10T05:36:14.904Z,79.03
2019-06-10T05:37:14.814Z,78.64
2019-06-10T05:38:14.740Z,78.55
2019-06-10T05:39:14.665Z,79.03
2019-06-10T05:40:14.578Z,79.13
2019-06-10T05:41:14.504Z,79.89
2019-06-10T05:42:14.435Z,81.52
2019-06-10T05:43:14.341Z,82.38
2019-06-10T05:44:14.265Z,82.48
2019-06-10T05:45:14.205Z,82.57
2019-06-10T05:46:14.103Z,82.38
2019-06-10T05:47:14.033Z,82.32
2019-06-10T05:48:16.575Z,82.71
2019-06-10T05:49:13.871Z,81.95
2019-06-10T05:50:13.804Z,80.89
2019-06-10T05:51:13.716Z,80.70
2019-06-10T05:52:13.631Z,80.60
2019-06-10T05:53:13.555Z,82.04
2019-06-10T05:54:13.480Z,82.42
2019-06-10T05:55:13.392Z,82.56
2019-06-10T05:56:13.317Z,82.37
2019-06-10T05:57:13.243Z,82.85
2019-06-10T05:58:13.157Z,82.65
2019-06-10T05:59:13.086Z,83.81
2019-06-10T06:00:14.972Z,85.53
2019-06-10T06:01:13.363Z,88.70
2019-06-10T06:02:12.919Z,91.67
2019-06-10T06:03:12.774Z,94.45
2019-06-10T06:04:12.883Z,96.18
2019-06-10T06:05:12.798Z,96.56
2019-06-10T06:06:12.719Z,97.81
2019-06-10T06:07:12.889Z,97.42
2019-06-10T06:08:12.533Z,97.61
2019-06-10T06:09:12.966Z,96.47
2019-06-10T06:10:13.012Z,95.60
2019-06-10T06:11:12.717Z,95.51
2019-06-10T06:12:14.158Z,95.31
2019-06-10T06:13:12.681Z,95.70
2019-06-10T06:14:13.264Z,96.27
2019-06-10T06:15:12.941Z,95.70
2019-06-10T06:16:12.664Z,94.69
2019-06-10T06:17:12.710Z,94.31
2019-06-10T06:18:14.007Z,93.54
2019-06-10T06:19:12.549Z,93.06
2019-06-10T06:20:13.293Z,93.92
2019-06-10T06:21:22.330Z,93.82
2019-06-10T06:22:12.988Z,95.84
2019-06-10T06:23:12.263Z,99.99
2019-06-10T06:24:12.884Z,99.99
2019-06-10T06:25:14.667Z,99.99
2019-06-10T06:26:15.873Z,99.99
2019-06-10T06:27:12.947Z,99.99
2019-06-10T06:28:12.927Z,99.99
2019-06-10T06:29:12.818Z,99.99
2019-06-10T06:30:13.728Z,99.99
2019-06-10T06:31:12.480Z,99.99
2019-06-10T06:32:13.055Z,99.99
2019-06-10T06:33:13.340Z,99.99
2019-06-10T06:34:10.333Z,99.99
2019-06-10T06:35:12.502Z,99.99
2019-06-10T06:36:12.450Z,99.99
2019-06-10T06:37:12.601Z,99.99
2019-06-10T06:38:10.021Z,99.99
2019-06-10T06:39:09.947Z,99.99
2019-06-10T06:40:09.872Z,99.99
2019-06-10T06:41:09.785Z,99.99
2019-06-10T06:42:09.709Z,99.99
2019-06-10T06:43:11.950Z,99.99
2019-06-10T06:44:09.547Z,99.99
2019-06-10T06:45:09.472Z,99.99
2019-06-10T06:46:09.398Z,99.99
2019-06-10T06:47:09.321Z,99.99
2019-06-10T06:48:09.247Z,99.99
2019-06-10T06:49:09.161Z,99.99
2019-06-10T06:50:09.094Z,99.99
2019-06-10T06:51:09.055Z,99.99
2019-06-10T06:52:08.934Z,99.99
2019-06-10T06:53:21.104Z,99.99
2019-06-10T06:54:08.772Z,99.99
2019-06-10T06:55:08.710Z,99.99
2019-06-10T06:56:08.622Z,99.99
2019-06-10T06:57:08.536Z,99.99
2019-06-10T06:58:08.462Z,99.99
2019-06-10T06:59:08.386Z,99.99
2019-06-10T07:00:33.857Z,99.99
2019-06-10T07:01:11.026Z,99.99
2019-06-10T07:02:08.153Z,99.99
2019-06-10T07:03:08.073Z,99.99
2019-06-10T07:04:07.998Z,99.99
2019-06-10T07:05:07.917Z,99.99
2019-06-10T07:06:07.841Z,99.99
2019-06-10T07:07:07.763Z,99.99
2019-06-10T07:08:07.686Z,99.99
2019-06-10T07:09:08.255Z,99.99
2019-06-10T07:10:07.524Z,99.99
2019-06-10T07:11:07.452Z,99.99
2019-06-10T07:12:07.389Z,99.99
2019-06-10T07:13:07.299Z,99.99
2019-06-10T07:14:09.995Z,99.99
2019-06-10T07:15:07.138Z,99.99
2019-06-10T07:16:07.062Z,99.99
2019-06-10T07:17:06.987Z,99.99
2019-06-10T07:18:06.914Z,99.99
2019-06-10T07:19:06.825Z,99.99
2019-06-10T07:20:06.750Z,99.99
2019-06-10T07:21:06.674Z,99.99
2019-06-10T07:22:12.467Z,99.99
2019-06-10T07:23:06.539Z,99.99
2019-06-10T07:24:06.439Z,99.99
2019-06-10T07:25:06.735Z,99.99
2019-06-10T07:26:06.295Z,99.99
2019-06-10T07:27:06.217Z,99.99
2019-06-10T07:28:06.138Z,99.99
2019-06-10T07:29:06.052Z,99.99
2019-06-10T07:30:11.729Z,99.99
2019-06-10T07:31:19.904Z,99.99
2019-06-10T07:32:05.839Z,99.99
2019-06-10T07:33:05.751Z,99.99
2019-06-10T07:34:05.676Z,99.99
2019-06-10T07:35:05.590Z,99.99
2019-06-10T07:36:05.523Z,99.99
2019-06-10T07:37:05.439Z,99.99
2019-06-10T07:38:05.367Z,99.99
2019-06-10T07:39:05.289Z,99.99
2019-06-10T07:40:05.203Z,99.99
2019-06-10T07:41:05.128Z,99.99
2019-06-10T07:42:05.052Z,99.99
2019-06-10T07:43:04.977Z,99.99
2019-06-10T07:44:04.903Z,99.99
2019-06-10T07:45:04.830Z,99.99
2019-06-10T07:46:04.741Z,99.99
2019-06-10T07:47:04.666Z,99.99
2019-06-10T07:48:04.592Z,99.99
2019-06-10T07:49:04.516Z,99.99
2019-06-10T07:50:04.440Z,99.99
2019-06-10T07:51:04.365Z,99.99
2019-06-10T07:52:15.160Z,99.99
2019-06-10T07:53:04.203Z,99.99
2019-06-10T07:54:04.128Z,99.99
2019-06-10T07:55:04.066Z,99.99
2019-06-10T07:56:03.978Z,99.99
2019-06-10T07:57:03.895Z,99.99
2019-06-10T07:58:03.817Z,99.99
2019-06-10T07:59:04.027Z,99.99
2019-06-10T08:00:03.667Z,99.99
2019-06-10T08:01:03.595Z,99.99
2019-06-10T08:02:03.518Z,99.99
2019-06-10T08:03:03.432Z,99.99
2019-06-10T08:04:03.354Z,99.99
2019-06-10T08:05:03.650Z,99.99
2019-06-10T08:06:03.431Z,99.99
2019-06-10T08:07:03.429Z,99.99
2019-06-10T08:08:03.065Z,99.99
2019-06-10T08:09:02.980Z,99.99
2019-06-10T08:10:03.034Z,99.99
2019-06-10T08:11:03.497Z,99.99
2019-06-10T08:12:05.818Z,99.99
2019-06-10T08:13:02.981Z,99.99
2019-06-10T08:14:04.652Z,99.99
2019-06-10T08:15:02.836Z,99.99
2019-06-10T08:16:02.928Z,99.99
2019-06-10T08:17:03.098Z,99.99
2019-06-10T08:18:04.351Z,99.99
2019-06-10T08:19:30.269Z,99.99
2019-06-10T08:20:02.468Z,99.99
2019-06-10T08:21:03.186Z,99.99
2019-06-10T08:22:02.967Z,99.99
2019-06-10T08:23:02.213Z,99.99
2019-06-10T08:24:03.474Z,98.87
2019-06-10T08:25:04.820Z,98.97
2019-06-10T08:26:03.511Z,99.99
2019-06-10T08:27:02.735Z,99.99
2019-06-10T08:28:03.033Z,99.99
2019-06-10T08:29:04.146Z,99.99
2019-06-10T08:30:15.489Z,99.30
2019-06-10T08:31:03.396Z,95.93
2019-06-10T08:32:03.303Z,95.54
2019-06-10T08:33:03.354Z,98.34
2019-06-10T08:34:02.966Z,99.99
2019-06-10T08:35:02.772Z,97.09
2019-06-10T08:36:03.673Z,99.74
2019-06-10T08:37:04.378Z,99.99
2019-06-10T08:38:02.471Z,97.77
2019-06-10T08:39:03.023Z,95.25
2019-06-10T08:40:00.633Z,94.29
2019-06-10T08:41:02.855Z,94.43
2019-06-10T08:42:02.983Z,93.85
2019-06-10T08:43:00.408Z,93.95
2019-06-10T08:44:02.231Z,95.59
2019-06-10T08:45:03.007Z,94.34
2019-06-10T08:46:02.332Z,93.80
2019-06-10T08:47:00.108Z,94.48
2019-06-10T08:48:02.508Z,93.32
2019-06-10T08:48:59.958Z,90.81
2019-06-10T08:50:02.443Z,93.13
2019-06-10T08:50:59.833Z,93.13
2019-06-10T08:52:02.486Z,87.71
2019-06-10T08:53:10.347Z,88.59
2019-06-10T08:54:02.132Z,89.03
2019-06-10T08:54:59.509Z,88.73
2019-06-10T08:55:59.434Z,88.45
2019-06-10T08:56:59.361Z,88.10
2019-06-10T08:57:59.288Z,86.65
2019-06-10T08:58:59.222Z,87.43
2019-06-10T08:59:59.135Z,86.65
2019-06-10T09:00:59.072Z,88.49
2019-06-10T09:01:58.987Z,88.78
2019-06-10T09:02:58.923Z,88.39
2019-06-10T09:03:58.849Z,89.17
2019-06-10T09:04:58.774Z,89.84
2019-06-10T09:05:58.717Z,90.42
2019-06-10T09:06:58.624Z,92.69
2019-06-10T09:07:58.549Z,87.62
2019-06-10T09:08:58.476Z,88.54
2019-06-10T09:09:58.402Z,88.29
2019-06-10T09:10:58.325Z,89.94
2019-06-10T09:11:58.249Z,88.05
2019-06-10T09:12:58.174Z,86.69
2019-06-10T09:13:58.102Z,86.99
2019-06-10T09:14:58.025Z,87.99
2019-06-10T09:16:10.885Z,85.10
2019-06-10T09:16:57.886Z,84.03
2019-06-10T09:17:57.811Z,82.93
2019-06-10T09:18:57.736Z,83.99
2019-06-10T09:19:57.677Z,83.41
2019-06-10T09:20:57.587Z,85.63
2019-06-10T09:21:57.566Z,86.41
2019-06-10T09:23:14.997Z,84.42
2019-06-10T09:24:00.008Z,86.16
2019-06-10T09:24:57.288Z,85.04
2019-06-10T09:25:57.778Z,85.04
2019-06-10T09:26:57.141Z,83.92
2019-06-10T09:27:57.076Z,83.92
2019-06-10T09:28:57.004Z,80.63
2019-06-10T09:29:56.926Z,82.86
2019-06-10T09:30:59.143Z,81.60
2019-06-10T09:31:56.777Z,81.25
2019-06-10T09:32:58.725Z,80.05
2019-06-10T09:33:57.166Z,79.43
2019-06-10T09:34:57.667Z,79.47
2019-06-10T09:35:56.501Z,82.04
2019-06-10T09:36:56.991Z,82.53
2019-06-10T09:37:56.340Z,80.44
2019-06-10T09:38:56.269Z,81.64
2019-06-10T09:39:59.556Z,79.97
2019-06-10T09:41:01.849Z,80.17
2019-06-10T09:42:01.451Z,77.98
2019-06-10T09:42:55.980Z,75.71
2019-06-10T09:43:56.877Z,74.68
2019-06-10T09:44:55.922Z,73.94
2019-06-10T09:45:56.601Z,74.75
2019-06-10T09:46:56.050Z,74.37
2019-06-10T09:47:59.894Z,75.14
2019-06-10T09:48:55.911Z,76.60
2019-06-10T09:49:55.738Z,74.37
2019-06-10T09:50:58.541Z,76.54
2019-06-10T09:51:57.499Z,74.30
2019-06-10T09:52:57.021Z,69.54
2019-06-10T09:54:03.688Z,70.06
2019-06-10T09:54:56.789Z,73.50
2019-06-10T09:55:55.596Z,72.76
2019-06-10T09:56:54.990Z,68.25
2019-06-10T09:57:59.789Z,67.90
2019-06-10T09:58:55.420Z,68.48
2019-06-10T09:59:56.339Z,66.11
2019-06-10T10:00:57.885Z,67.57
2019-06-10T10:02:00.095Z,69.54
2019-06-10T10:02:56.160Z,70.83
2019-06-10T10:03:59.734Z,69.86
2019-06-10T10:04:58.500Z,71.64
2019-06-10T10:06:07.357Z,69.09
2019-06-10T10:06:57.199Z,67.83
2019-06-10T10:07:57.288Z,66.44
2019-06-10T10:08:58.298Z,66.86
2019-06-10T10:09:57.000Z,66.27
2019-06-10T10:10:58.622Z,67.44
2019-06-10T10:11:55.905Z,73.37
2019-06-10T10:12:55.797Z,71.72
2019-06-10T10:13:53.820Z,68.70
2019-06-10T10:14:56.218Z,69.67
2019-06-10T10:15:54.372Z,69.93
2019-06-10T10:16:59.171Z,70.15
2019-06-10T10:17:56.282Z,71.48
2019-06-10T10:19:00.298Z,72.29
2019-06-10T10:19:56.778Z,71.93
2019-06-10T10:20:58.684Z,71.44
2019-06-10T10:21:58.187Z,71.67
2019-06-10T10:22:55.141Z,74.71
2019-06-10T10:24:06.229Z,74.52
2019-06-10T10:24:56.679Z,74.52
2019-06-10T10:25:57.013Z,73.74
2019-06-10T10:26:57.367Z,72.67
2019-06-10T10:27:57.261Z,73.58
2019-06-10T10:28:57.042Z,72.42
2019-06-10T10:29:57.012Z,70.97
2019-06-10T10:30:57.095Z,73.10
2019-06-10T10:31:53.793Z,72.23
2019-06-10T10:32:53.948Z,70.80
2019-06-10T10:33:52.690Z,71.32
2019-06-10T10:34:56.153Z,71.77
2019-06-10T10:35:52.669Z,72.74
2019-06-10T10:36:56.740Z,73.32
2019-06-10T10:37:54.251Z,73.90
2019-06-10T10:38:53.417Z,74.62
2019-06-10T10:39:54.464Z,72.09
2019-06-10T10:40:56.464Z,72.45
2019-06-10T10:41:55.006Z,74.49
2019-06-10T10:42:59.191Z,75.23
2019-06-10T10:43:56.567Z,74.74
2019-06-10T10:44:58.388Z,75.03
2019-06-10T10:45:54.568Z,73.38
2019-06-10T10:46:53.775Z,72.89
2019-06-10T10:47:52.562Z,74.32
2019-06-10T10:48:53.368Z,74.80
2019-06-10T10:49:55.522Z,74.80
2019-06-10T10:50:54.543Z,74.12
2019-06-10T10:51:51.204Z,74.02
2019-06-10T10:52:52.363Z,74.32
2019-06-10T10:54:15.402Z,75.67
2019-06-10T10:54:51.890Z,75.28
2019-06-10T10:55:51.866Z,75.19
2019-06-10T10:56:55.149Z,76.29
2019-06-10T10:57:52.855Z,76.19
2019-06-10T10:58:54.866Z,76.19
2019-06-10T10:59:54.197Z,76.39
2019-06-10T11:00:54.266Z,76.39
2019-06-10T11:01:51.496Z,75.38
2019-06-10T11:02:51.463Z,77.06
2019-06-10T11:03:51.423Z,77.26
2019-06-10T11:04:53.332Z,76.48
2019-06-10T11:05:52.339Z,76.48
2019-06-10T11:06:50.073Z,75.36
2019-06-10T11:07:50.000Z,76.62
2019-06-10T11:08:49.988Z,75.55
2019-06-10T11:09:50.337Z,74.64
2019-06-10T11:10:52.063Z,74.06
2019-06-10T11:11:52.231Z,74.26
2019-06-10T11:12:49.649Z,75.61
2019-06-10T11:13:49.573Z,74.35
2019-06-10T11:14:49.499Z,73.77
2019-06-10T11:15:49.424Z,74.87
2019-06-10T11:16:49.473Z,74.10
2019-06-10T11:17:49.541Z,74.49
2019-06-10T11:18:49.347Z,74.68
2019-06-10T11:19:49.307Z,74.97
2019-06-10T11:20:49.906Z,75.68
2019-06-10T11:21:49.550Z,74.62
2019-06-10T11:22:49.606Z,72.39
2019-06-10T11:23:50.030Z,70.93
2019-06-10T11:24:49.315Z,71.51
2019-06-10T11:25:49.823Z,71.45
2019-06-10T11:26:49.860Z,72.23
2019-06-10T11:27:48.986Z,72.77
2019-06-10T11:28:49.471Z,72.09
2019-06-10T11:29:48.424Z,71.51
2019-06-10T11:30:49.327Z,72.33
2019-06-10T11:31:48.488Z,73.84
2019-06-10T11:32:48.241Z,75.04
2019-06-10T11:33:48.693Z,74.37
2019-06-10T11:34:48.075Z,73.78
2019-06-10T11:35:48.786Z,70.87
2019-06-10T11:36:48.014Z,70.97
2019-06-10T11:37:48.881Z,70.67
2019-06-10T11:38:48.591Z,70.29
2019-06-10T11:39:48.132Z,68.96
2019-06-10T11:40:47.652Z,68.35
2019-06-10T11:41:48.107Z,67.54
2019-06-10T11:42:48.348Z,65.56
2019-06-10T11:43:48.278Z,66.69
2019-06-10T11:44:48.327Z,67.18
2019-06-10T11:45:52.376Z,65.56
2019-06-10T11:46:47.227Z,66.53
2019-06-10T11:47:47.153Z,66.83
2019-06-10T11:48:47.091Z,65.72
2019-06-10T11:49:47.034Z,64.49
2019-06-10T11:50:47.130Z,65.23
2019-06-10T11:51:47.167Z,63.97
2019-06-10T11:52:47.542Z,64.84
2019-06-10T11:53:47.453Z,63.19
2019-06-10T11:54:55.818Z,64.49
2019-06-10T11:55:47.609Z,66.44
2019-06-10T11:56:47.653Z,67.77
2019-06-10T11:57:47.770Z,65.11
2019-06-10T11:58:46.416Z,65.69
2019-06-10T11:59:46.341Z,66.17
2019-06-10T12:00:46.278Z,67.44
2019-06-10T12:01:46.203Z,66.37
2019-06-10T12:02:46.142Z,66.50
2019-06-10T12:03:46.066Z,65.85
2019-06-10T12:04:46.005Z,66.99
2019-06-10T12:05:45.942Z,68.41
2019-06-10T12:06:45.867Z,68.44
2019-06-10T12:07:45.816Z,68.44
2019-06-10T12:08:45.729Z,68.54
2019-06-10T12:09:45.667Z,67.47
2019-06-10T12:10:45.601Z,68.57
2019-06-10T12:11:45.537Z,69.48
2019-06-10T12:12:45.456Z,69.20
2019-06-10T12:13:45.394Z,69.23
2019-06-10T12:14:45.329Z,67.08
2019-06-10T12:16:20.871Z,66.89
2019-06-10T12:17:51.090Z,67.47
2019-06-10T12:18:45.055Z,66.41
2019-06-10T12:19:44.980Z,64.36
2019-06-10T12:20:44.919Z,65.04
2019-06-10T12:21:44.844Z,65.23
2019-06-10T12:22:44.783Z,65.33
2019-06-10T12:23:44.719Z,67.50
2019-06-10T12:24:44.644Z,68.48
2019-06-10T12:25:47.769Z,68.38
2019-06-10T12:26:44.521Z,68.35
2019-06-10T12:27:44.432Z,68.93
2019-06-10T12:28:44.370Z,68.99
2019-06-10T12:29:44.313Z,69.29
2019-06-10T12:30:44.231Z,69.67
2019-06-10T12:31:44.158Z,69.61
2019-06-10T12:32:44.095Z,70.00
2019-06-10T12:33:44.031Z,68.93
2019-06-10T12:34:46.185Z,68.87
2019-06-10T12:35:43.883Z,68.38
2019-06-10T12:36:43.821Z,68.48
2019-06-10T12:37:43.746Z,69.26
2019-06-10T12:38:43.783Z,68.48
2019-06-10T12:39:43.621Z,66.83
2019-06-10T12:40:43.546Z,67.76
2019-06-10T12:41:43.520Z,67.67
2019-06-10T12:42:43.410Z,66.50
2019-06-10T12:43:43.563Z,66.79
2019-06-10T12:44:43.271Z,67.86
2019-06-10T12:45:43.884Z,68.77
2019-06-10T12:46:43.359Z,67.86
2019-06-10T12:47:43.058Z,67.80
2019-06-10T12:48:42.996Z,68.48
2019-06-10T12:49:42.923Z,67.41
2019-06-10T12:50:43.014Z,67.60
2019-06-10T12:51:42.784Z,68.57
2019-06-10T12:52:42.721Z,68.57
2019-06-10T12:53:43.138Z,66.86